Time;durP1;ratioP1;P1;durP2;ratioP2;P2;SDS_P1;SDS_P2;PMS_P1;PMS_P2;Temp;Humidity;BMP_temperature;BMP_pressure;BME280_temperature;BME280_humidity;BME280_pressure;Samples;Min_cycle;Max_cycle;Signal;HPM_P1;HPM_P2
2021/12/27 00:01:32;;;;;;;8.80;7.03;;;7.70;99.90;;;;;;5073278;28;20445;-74
2021/12/27 00:03:59;;;;;;;8.97;6.47;;;7.80;99.90;;;;;;5073698;28;20447;-74
2021/12/27 00:06:26;;;;;;;11.80;7.27;;;7.70;99.90;;;;;;5073749;28;20438;-77
2021/12/27 00:08:53;;;;;;;8.83;7.00;;;7.60;99.90;;;;;;5073190;28;20478;-77
2021/12/27 00:11:20;;;;;;;11.07;8.20;;;7.60;99.90;;;;;;5072480;28;20532;-77
2021/12/27 00:13:48;;;;;;;11.60;8.03;;;7.60;99.90;;;;;;5073478;28;20762;-77
2021/12/27 00:16:16;;;;;;;9.17;7.47;;;7.70;99.90;;;;;;5072815;28;20503;-76
2021/12/27 00:18:43;;;;;;;12.37;7.77;;;7.80;99.90;;;;;;5072484;28;20917;-76
2021/12/27 00:21:10;;;;;;;10.20;6.70;;;7.80;99.90;;;;;;5072260;28;20449;-75
2021/12/27 00:23:37;;;;;;;9.47;7.40;;;7.70;99.90;;;;;;5073419;28;20437;-77
2021/12/27 00:26:04;;;;;;;9.43;7.90;;;7.70;99.90;;;;;;5072783;28;20441;-76
2021/12/27 00:28:33;;;;;;;8.10;5.73;;;7.60;99.90;;;;;;5073429;28;20528;-76
2021/12/27 00:31:00;;;;;;;7.27;5.90;;;7.50;99.90;;;;;;5072145;28;20492;-75
2021/12/27 00:33:28;;;;;;;7.87;5.63;;;7.60;99.90;;;;;;5072560;28;20525;-76
2021/12/27 00:35:55;;;;;;;9.57;6.53;;;7.60;99.90;;;;;;5072661;28;20944;-76
2021/12/27 00:38:22;;;;;;;8.90;6.17;;;7.50;99.90;;;;;;5072397;28;20469;-76
2021/12/27 00:40:49;;;;;;;19.13;7.47;;;7.60;99.90;;;;;;5072952;28;20904;-76
2021/12/27 00:43:16;;;;;;;8.50;6.13;;;7.60;99.90;;;;;;5071765;28;20548;-77
2021/12/27 00:45:43;;;;;;;8.40;6.10;;;7.60;99.90;;;;;;5072717;28;20909;-76
2021/12/27 00:48:10;;;;;;;10.57;7.30;;;7.50;99.90;;;;;;5072158;28;20780;-76
2021/12/27 00:50:38;;;;;;;8.53;7.13;;;7.60;99.90;;;;;;5072540;28;20483;-76
2021/12/27 00:53:05;;;;;;;11.00;7.10;;;7.50;99.90;;;;;;5071460;28;20496;-76
2021/12/27 00:55:32;;;;;;;9.93;8.07;;;7.50;99.90;;;;;;5072607;28;20534;-76
2021/12/27 00:57:59;;;;;;;7.90;6.33;;;7.60;99.90;;;;;;5072153;28;20789;-73
2021/12/27 01:00:26;;;;;;;10.03;6.80;;;7.40;99.90;;;;;;5072837;28;20532;-76
2021/12/27 01:02:55;;;;;;;10.07;6.70;;;7.60;99.90;;;;;;5072238;28;20445;-76
2021/12/27 01:05:23;;;;;;;8.40;7.07;;;7.60;99.90;;;;;;5071808;28;20532;-76
2021/12/27 01:07:52;;;;;;;11.10;8.07;;;7.60;99.90;;;;;;5058888;28;20536;-76
2021/12/27 01:10:41;;;;;;;9.63;6.23;;;7.60;99.90;;;;;;5071657;28;20752;-76
2021/12/27 01:13:19;;;;;;;7.13;5.83;;;7.60;99.90;;;;;;5071423;28;20510;-76
2021/12/27 01:15:50;;;;;;;10.80;7.20;;;7.60;99.90;;;;;;5071973;28;20480;-77
2021/12/27 01:18:18;;;;;;;8.43;5.60;;;7.80;99.90;;;;;;5071487;28;20441;-77
2021/12/27 01:20:46;;;;;;;8.90;6.70;;;7.60;99.90;;;;;;5071915;28;20444;-77
2021/12/27 01:23:15;;;;;;;8.90;6.50;;;7.60;99.90;;;;;;5071457;28;20449;-76
2021/12/27 01:25:42;;;;;;;8.67;6.83;;;7.70;99.90;;;;;;5059059;28;20440;-76
2021/12/27 01:28:09;;;;;;;11.83;6.97;;;7.60;99.90;;;;;;5071185;28;20442;-75
2021/12/27 01:30:45;;;;;;;11.67;6.90;;;7.60;99.90;;;;;;5071485;28;20477;-76
2021/12/27 01:33:13;;;;;;;8.30;6.50;;;7.60;99.90;;;;;;5071076;28;20441;-76
2021/12/27 01:35:39;;;;;;;8.87;6.90;;;7.50;99.90;;;;;;5071945;28;20776;-76
2021/12/27 01:38:06;;;;;;;10.10;6.67;;;7.60;99.90;;;;;;5071038;28;20540;-77
2021/12/27 01:40:35;;;;;;;10.70;6.53;;;7.60;99.90;;;;;;5072121;28;20528;-76
2021/12/27 01:43:06;;;;;;;11.60;6.80;;;7.40;99.90;;;;;;5066318;28;20440;-76
2021/12/27 01:45:33;;;;;;;7.50;6.50;;;7.40;99.90;;;;;;5071845;28;20785;-76
2021/12/27 01:48:00;;;;;;;11.03;7.17;;;7.30;99.90;;;;;;5071416;28;20551;-76
2021/12/27 01:50:27;;;;;;;10.97;7.47;;;7.30;99.90;;;;;;5071505;28;20984;-76
2021/12/27 01:52:54;;;;;;;9.83;6.67;;;7.30;99.90;;;;;;5071169;28;20485;-76
2021/12/27 01:55:21;;;;;;;12.47;7.53;;;7.30;99.90;;;;;;5070857;28;20448;-76
2021/12/27 01:57:49;;;;;;;10.20;6.97;;;7.10;99.90;;;;;;5071085;28;20881;-76
2021/12/27 02:00:17;;;;;;;11.13;7.07;;;7.00;99.90;;;;;;5070667;28;20440;-76
2021/12/27 02:02:45;;;;;;;11.33;7.20;;;7.00;99.90;;;;;;5070717;28;20437;-76
2021/12/27 02:05:12;;;;;;;10.60;7.43;;;6.90;99.90;;;;;;5070497;28;20528;-76
2021/12/27 02:07:39;;;;;;;11.90;7.10;;;6.90;99.90;;;;;;5071357;28;20437;-76
2021/12/27 02:10:07;;;;;;;10.87;7.00;;;6.90;99.90;;;;;;5071000;28;20491;-75
2021/12/27 02:12:35;;;;;;;10.83;7.73;;;6.90;99.90;;;;;;5070698;28;20441;-76
2021/12/27 02:15:07;;;;;;;10.47;7.10;;;6.80;99.90;;;;;;5070965;28;20441;-76
2021/12/27 02:17:35;;;;;;;11.20;7.63;;;6.80;99.90;;;;;;5058587;28;20449;-76
2021/12/27 02:20:05;;;;;;;11.23;7.30;;;6.80;99.90;;;;;;5070821;28;20444;-75
2021/12/27 02:22:35;;;;;;;14.17;8.27;;;6.80;99.90;;;;;;5071030;28;20442;-76
2021/12/27 02:25:05;;;;;;;15.20;7.70;;;6.80;99.90;;;;;;5070654;28;20488;-76
2021/12/27 02:27:32;;;;;;;12.80;8.03;;;6.80;99.90;;;;;;5071023;28;20449;-76
2021/12/27 02:29:59;;;;;;;10.40;7.43;;;6.80;99.90;;;;;;5070320;28;20925;-73
2021/12/27 02:32:26;;;;;;;11.70;7.40;;;6.80;99.90;;;;;;5071095;28;20545;-77
2021/12/27 02:34:53;;;;;;;9.27;7.70;;;6.70;99.90;;;;;;5071213;28;20437;-77
2021/12/27 02:37:21;;;;;;;11.17;8.23;;;6.70;99.90;;;;;;5070440;28;20441;-77
2021/12/27 02:39:48;;;;;;;13.17;7.23;;;6.60;99.90;;;;;;5071276;28;20437;-76
2021/12/27 02:42:18;;;;;;;11.47;7.90;;;6.70;99.90;;;;;;5071031;28;20447;-77
2021/12/27 02:44:45;;;;;;;11.00;8.07;;;6.70;99.90;;;;;;5075148;28;20441;-76
2021/12/27 02:47:12;;;;;;;12.50;7.90;;;6.70;99.90;;;;;;5074297;28;20445;-76
2021/12/27 02:49:39;;;;;;;11.73;6.73;;;6.70;99.90;;;;;;5075103;28;20433;-75
2021/12/27 02:52:06;;;;;;;10.53;7.50;;;6.60;99.90;;;;;;5073419;28;21014;-76
2021/12/27 02:54:34;;;;;;;12.90;7.43;;;6.60;99.90;;;;;;5074930;28;20441;-75
2021/12/27 02:57:01;;;;;;;10.37;7.90;;;6.60;99.90;;;;;;5074428;28;20441;-76
2021/12/27 02:59:28;;;;;;;12.10;7.87;;;6.60;99.90;;;;;;5074886;28;20551;-76
2021/12/27 03:01:55;;;;;;;9.53;6.80;;;6.60;99.90;;;;;;5074385;28;20441;-77
2021/12/27 03:04:22;;;;;;;12.40;6.70;;;6.60;99.90;;;;;;5073819;28;20833;-76
2021/12/27 03:06:49;;;;;;;9.40;7.20;;;6.70;99.90;;;;;;5074237;28;20568;-76
2021/12/27 03:09:16;;;;;;;11.37;7.80;;;6.70;99.90;;;;;;5073870;28;20441;-76
2021/12/27 03:11:44;;;;;;;12.03;7.53;;;6.70;99.90;;;;;;5073781;28;20479;-76
2021/12/27 03:14:11;;;;;;;14.83;7.63;;;6.70;99.90;;;;;;5074097;28;20445;-76
2021/12/27 03:16:37;;;;;;;8.43;6.17;;;6.70;99.90;;;;;;5074611;28;20802;-77
2021/12/27 03:19:04;;;;;;;12.23;7.40;;;6.60;99.90;;;;;;5073970;28;20443;-76
2021/12/27 03:21:31;;;;;;;9.27;6.90;;;6.60;99.90;;;;;;5073752;28;20456;-77
2021/12/27 03:23:58;;;;;;;13.10;7.93;;;6.80;99.90;;;;;;5074640;28;20469;-77
2021/12/27 03:26:25;;;;;;;10.67;6.70;;;6.80;99.90;;;;;;5074445;28;20448;-76
2021/12/27 03:28:53;;;;;;;10.47;6.13;;;6.80;99.90;;;;;;5074279;28;20444;-77
2021/12/27 03:31:20;;;;;;;14.43;7.67;;;6.80;99.90;;;;;;5073470;28;20484;-77
2021/12/27 03:33:47;;;;;;;10.43;6.60;;;6.90;99.90;;;;;;5074280;28;20446;-77
2021/12/27 03:36:14;;;;;;;8.90;5.93;;;6.80;99.90;;;;;;5073139;28;20444;-77
2021/12/27 03:38:43;;;;;;;9.47;6.77;;;6.90;99.90;;;;;;5074224;28;20524;-77
2021/12/27 03:41:14;;;;;;;10.33;6.50;;;6.90;99.90;;;;;;5072775;28;21080;-77
2021/12/27 03:43:41;;;;;;;10.23;6.40;;;6.90;99.90;;;;;;5074183;28;20445;-77
2021/12/27 03:46:10;;;;;;;11.50;7.00;;;6.80;99.90;;;;;;5073141;28;20449;-76
2021/12/27 03:48:37;;;;;;;8.33;6.17;;;6.90;99.90;;;;;;5073781;28;20448;-77
2021/12/27 03:51:06;;;;;;;7.87;6.73;;;6.90;99.90;;;;;;5072405;28;20512;-76
2021/12/27 03:53:33;;;;;;;10.57;5.77;;;7.00;99.90;;;;;;5073337;28;20441;-77
2021/12/27 03:56:00;;;;;;;9.03;5.47;;;7.00;99.90;;;;;;5072899;28;20545;-76
2021/12/27 03:58:30;;;;;;;10.70;5.73;;;7.00;99.90;;;;;;5073967;28;20460;-77
2021/12/27 04:01:14;;;;;;;9.30;6.50;;;7.00;99.90;;;;;;5073381;28;20442;-77
2021/12/27 04:03:44;;;;;;;7.10;5.57;;;6.90;99.90;;;;;;5074484;28;20448;-77
2021/12/27 04:06:11;;;;;;;6.73;5.33;;;6.90;99.90;;;;;;5073043;28;20810;-76
2021/12/27 04:08:38;;;;;;;8.33;5.50;;;6.90;99.90;;;;;;5073508;28;20926;-77
2021/12/27 04:11:05;;;;;;;6.63;5.00;;;6.90;99.90;;;;;;5072736;28;20820;-77
2021/12/27 04:13:32;;;;;;;10.30;5.50;;;7.00;99.90;;;;;;5073782;28;20520;-77
2021/12/27 04:15:59;;;;;;;10.00;5.53;;;7.00;99.90;;;;;;5073981;28;20437;-72
2021/12/27 04:18:27;;;;;;;6.13;4.70;;;7.10;99.90;;;;;;5074025;28;20452;-77
2021/12/27 04:20:55;;;;;;;8.60;5.00;;;7.10;99.90;;;;;;5073495;28;20524;-77
2021/12/27 04:23:22;;;;;;;7.57;5.40;;;7.10;99.90;;;;;;5073601;28;20459;-77
2021/12/27 04:25:49;;;;;;;7.70;6.00;;;7.10;99.90;;;;;;5073953;28;20479;-77
2021/12/27 04:28:17;;;;;;;8.80;5.53;;;7.00;99.90;;;;;;5080789;28;20505;-77
2021/12/27 04:30:44;;;;;;;8.43;5.50;;;7.00;99.90;;;;;;5074757;28;20437;-77
2021/12/27 04:33:11;;;;;;;6.27;4.43;;;7.00;99.90;;;;;;5073445;28;20442;-77
2021/12/27 04:35:38;;;;;;;6.23;4.60;;;7.00;99.90;;;;;;5073110;28;21016;-76
2021/12/27 04:38:06;;;;;;;5.43;4.77;;;7.00;99.90;;;;;;5072793;28;20463;-76
2021/12/27 04:40:36;;;;;;;6.80;4.20;;;7.00;99.90;;;;;;5073123;28;20441;-76
2021/12/27 04:43:08;;;;;;;6.33;4.97;;;7.00;99.90;;;;;;5072288;28;20448;-76
2021/12/27 04:45:35;;;;;;;7.20;4.83;;;7.10;99.90;;;;;;5073508;28;20436;-77
2021/12/27 04:48:02;;;;;;;6.20;4.37;;;7.00;99.90;;;;;;5072581;28;20913;-77
2021/12/27 04:50:30;;;;;;;5.73;4.20;;;7.00;99.90;;;;;;5072762;28;20536;-74
2021/12/27 04:52:57;;;;;;;7.30;5.33;;;7.00;99.90;;;;;;5072593;28;20504;-77
2021/12/27 04:55:27;;;;;;;7.60;5.03;;;7.00;99.90;;;;;;5073050;28;20533;-77
2021/12/27 04:57:55;;;;;;;6.60;4.43;;;6.90;99.90;;;;;;5072892;28;20438;-77
2021/12/27 05:00:22;;;;;;;7.83;5.53;;;6.90;99.90;;;;;;5072095;28;20529;-77
2021/12/27 05:02:49;;;;;;;6.60;4.90;;;7.00;99.90;;;;;;5071953;28;20449;-76
2021/12/27 05:05:16;;;;;;;7.13;4.23;;;6.90;99.90;;;;;;5071944;28;20533;-76
2021/12/27 05:07:44;;;;;;;5.90;4.23;;;6.80;99.90;;;;;;5072586;28;20472;-76
2021/12/27 05:10:11;;;;;;;6.93;4.70;;;6.90;99.90;;;;;;5071784;28;20452;-77
2021/12/27 05:12:40;;;;;;;9.67;4.40;;;6.90;99.90;;;;;;5071596;28;20476;-75
2021/12/27 05:15:07;;;;;;;5.20;4.20;;;6.90;99.90;;;;;;5071888;28;20441;-75
2021/12/27 05:17:34;;;;;;;7.33;4.90;;;6.90;99.90;;;;;;5059341;28;20437;-77
2021/12/27 05:20:04;;;;;;;5.10;4.07;;;6.90;99.90;;;;;;5071801;28;20477;-74
2021/12/27 05:22:31;;;;;;;6.73;4.30;;;7.00;99.90;;;;;;5071494;28;20544;-77
2021/12/27 05:24:59;;;;;;;5.20;3.90;;;7.00;99.90;;;;;;5072268;28;20782;-77
2021/12/27 05:27:25;;;;;;;5.07;3.10;;;7.00;99.90;;;;;;5072519;28;20797;-76
2021/12/27 05:29:54;;;;;;;4.73;4.03;;;7.10;99.90;;;;;;5071972;28;20442;-77
2021/12/27 05:32:21;;;;;;;4.93;3.93;;;7.10;99.90;;;;;;5071055;28;20479;-77
2021/12/27 05:34:47;;;;;;;5.67;3.60;;;7.10;99.90;;;;;;5071689;28;20445;-77
2021/12/27 05:37:14;;;;;;;4.87;3.60;;;7.10;99.90;;;;;;5070934;28;20537;-77
2021/12/27 05:39:42;;;;;;;4.50;3.80;;;7.20;99.90;;;;;;5071791;28;20445;-77
2021/12/27 05:42:09;;;;;;;5.17;3.40;;;7.20;99.90;;;;;;5070764;28;20445;-75
2021/12/27 05:44:36;;;;;;;3.90;3.00;;;7.00;99.90;;;;;;5072026;28;20444;-77
2021/12/27 05:47:05;;;;;;;3.80;3.33;;;7.10;99.90;;;;;;5071099;28;20441;-77
2021/12/27 05:49:32;;;;;;;3.67;2.70;;;7.10;99.90;;;;;;5071397;28;20512;-77
2021/12/27 05:51:59;;;;;;;4.13;3.23;;;7.10;99.90;;;;;;5070545;28;20508;-71
2021/12/27 05:54:26;;;;;;;5.57;4.07;;;7.10;99.90;;;;;;5071494;28;20441;-78
2021/12/27 05:56:53;;;;;;;5.57;3.17;;;7.30;99.90;;;;;;5071626;28;20524;-77
2021/12/27 05:59:19;;;;;;;3.33;2.50;;;7.30;99.90;;;;;;5071192;28;20444;-77
2021/12/27 06:01:47;;;;;;;5.70;3.10;;;7.30;99.90;;;;;;5071179;28;20456;-77
2021/12/27 06:04:15;;;;;;;4.00;3.33;;;7.10;99.90;;;;;;5070837;28;20437;-77
2021/12/27 06:06:42;;;;;;;3.37;3.07;;;7.00;99.90;;;;;;5071389;28;20437;-76
2021/12/27 06:09:09;;;;;;;5.80;3.90;;;6.90;99.90;;;;;;5070835;28;20441;-76
2021/12/27 06:11:36;;;;;;;3.50;2.83;;;6.90;99.90;;;;;;5070888;28;20568;-77
2021/12/27 06:14:03;;;;;;;3.70;2.87;;;6.90;99.90;;;;;;5070552;28;20442;-77
2021/12/27 06:16:30;;;;;;;3.77;3.20;;;6.90;99.90;;;;;;5070960;28;20511;-76
2021/12/27 06:18:57;;;;;;;5.10;3.80;;;6.80;99.90;;;;;;5071134;28;20448;-77
2021/12/27 06:21:26;;;;;;;5.67;2.90;;;6.80;99.90;;;;;;5071071;28;20455;-77
2021/12/27 06:23:53;;;;;;;5.30;2.93;;;6.80;99.90;;;;;;5070917;28;20443;-77
2021/12/27 06:26:20;;;;;;;5.30;3.40;;;6.70;99.90;;;;;;5070867;28;20467;-77
2021/12/27 06:28:47;;;;;;;4.23;3.30;;;6.60;99.90;;;;;;5071228;28;20437;-77
2021/12/27 06:31:13;;;;;;;4.07;3.10;;;6.70;99.90;;;;;;5070378;28;20434;-77
2021/12/27 06:33:40;;;;;;;4.13;3.00;;;6.80;99.90;;;;;;5057842;28;20437;-77
2021/12/27 06:36:07;;;;;;;3.33;3.03;;;6.70;99.90;;;;;;5070755;28;20442;-77
2021/12/27 06:38:36;;;;;;;4.70;3.10;;;6.70;99.90;;;;;;5057621;28;20441;-77
2021/12/27 06:41:03;;;;;;;5.23;3.80;;;6.70;99.90;;;;;;5070069;28;20522;-75
2021/12/27 06:43:30;;;;;;;4.73;3.20;;;6.70;99.90;;;;;;5058128;28;20501;-76
2021/12/27 06:45:57;;;;;;;4.57;3.00;;;6.50;99.90;;;;;;5071142;28;20437;-78
2021/12/27 06:48:24;;;;;;;4.60;3.10;;;6.40;99.90;;;;;;5070864;28;20441;-78
2021/12/27 06:50:51;;;;;;;5.00;3.63;;;6.30;99.90;;;;;;5070513;28;20452;-78
2021/12/27 06:53:18;;;;;;;4.13;3.43;;;6.30;99.90;;;;;;5069708;28;21443;-78
2021/12/27 06:55:48;;;;;;;4.37;3.67;;;6.30;99.90;;;;;;5070620;28;20487;-76
2021/12/27 06:58:15;;;;;;;4.50;3.40;;;6.20;99.90;;;;;;5070370;28;20781;-76
2021/12/27 07:00:43;;;;;;;4.90;3.80;;;6.10;99.90;;;;;;5070172;28;20445;-78
2021/12/27 07:03:11;;;;;;;5.93;4.27;;;6.00;99.90;;;;;;5069942;28;20445;-78
2021/12/27 07:05:38;;;;;;;4.57;3.30;;;6.00;99.90;;;;;;5070749;28;20457;-78
2021/12/27 07:08:05;;;;;;;5.23;3.50;;;5.90;99.90;;;;;;5070168;28;20450;-78
2021/12/27 07:10:32;;;;;;;7.23;4.00;;;6.00;99.90;;;;;;5070079;28;20448;-77
2021/12/27 07:13:02;;;;;;;4.37;3.60;;;6.00;99.90;;;;;;5069968;28;21007;-74
2021/12/27 07:15:29;;;;;;;4.47;4.07;;;5.90;99.90;;;;;;5070496;28;20468;-76
2021/12/27 07:17:56;;;;;;;5.83;4.50;;;5.90;99.90;;;;;;5070878;28;20446;-76
2021/12/27 07:20:23;;;;;;;6.37;3.63;;;5.90;99.90;;;;;;5069816;28;20448;-76
2021/12/27 07:22:49;;;;;;;4.17;3.70;;;6.00;99.90;;;;;;5070328;28;20464;-76
2021/12/27 07:25:17;;;;;;;6.93;4.23;;;6.00;99.90;;;;;;5069770;28;20441;-76
2021/12/27 07:27:44;;;;;;;5.60;3.80;;;6.00;99.90;;;;;;5070710;28;20444;-76
2021/12/27 07:30:13;;;;;;;3.73;3.43;;;6.00;99.90;;;;;;5071790;28;20448;-75
2021/12/27 07:32:40;;;;;;;5.77;4.07;;;5.90;99.90;;;;;;5073188;28;20473;-76
2021/12/27 07:35:08;;;;;;;5.60;4.00;;;5.90;99.90;;;;;;5073194;28;20441;-76
2021/12/27 07:37:35;;;;;;;8.77;4.30;;;5.80;99.90;;;;;;5073708;28;20452;-76
2021/12/27 07:40:02;;;;;;;5.20;3.83;;;6.00;99.90;;;;;;5073445;28;20533;-76
2021/12/27 07:42:29;;;;;;;5.80;4.30;;;6.00;99.90;;;;;;5073720;28;20463;-75
2021/12/27 07:44:56;;;;;;;4.70;3.60;;;6.00;99.90;;;;;;5073997;28;20525;-78
2021/12/27 07:47:24;;;;;;;6.50;4.30;;;6.10;99.90;;;;;;5073115;28;20952;-77
2021/12/27 07:49:51;;;;;;;6.57;3.57;;;6.10;99.90;;;;;;5073463;28;20910;-77
2021/12/27 07:52:18;;;;;;;4.03;3.00;;;6.00;99.90;;;;;;5072196;28;20491;-77
2021/12/27 07:54:45;;;;;;;4.70;3.60;;;6.00;99.90;;;;;;5073393;28;20896;-77
2021/12/27 07:57:12;;;;;;;3.73;3.30;;;6.00;99.90;;;;;;5073124;28;20441;-77
2021/12/27 07:59:39;;;;;;;4.73;3.47;;;6.00;99.90;;;;;;5073687;28;20425;-75
2021/12/27 08:02:06;;;;;;;4.97;3.90;;;6.00;99.90;;;;;;5072486;28;20443;-77
2021/12/27 08:04:35;;;;;;;6.23;3.77;;;6.00;99.90;;;;;;5073571;28;20437;-77
2021/12/27 08:07:01;;;;;;;4.97;3.10;;;6.00;99.90;;;;;;5072648;28;20441;-75
2021/12/27 08:09:28;;;;;;;4.73;3.40;;;6.00;99.90;;;;;;5073729;28;20787;-78
2021/12/27 08:11:55;;;;;;;6.50;3.97;;;6.00;99.90;;;;;;5072995;28;20872;-76
2021/12/27 08:14:22;;;;;;;4.27;3.30;;;6.00;99.90;;;;;;5072921;28;20779;-78
2021/12/27 08:16:49;;;;;;;5.60;3.87;;;5.90;99.90;;;;;;5073267;28;20441;-77
2021/12/27 08:19:16;;;;;;;6.67;4.53;;;5.90;99.90;;;;;;5072487;28;20997;-77
2021/12/27 08:21:44;;;;;;;6.37;3.93;;;5.90;99.90;;;;;;5072403;28;20928;-77
2021/12/27 08:24:11;;;;;;;4.60;3.27;;;5.80;99.90;;;;;;5072468;28;20869;-77
2021/12/27 08:26:39;;;;;;;7.00;4.17;;;5.90;99.90;;;;;;5072857;28;20448;-77
2021/12/27 08:29:09;;;;;;;3.97;3.47;;;6.00;99.90;;;;;;5072657;28;20437;-77
2021/12/27 08:31:35;;;;;;;6.63;4.10;;;6.10;99.90;;;;;;5072874;28;20528;-78
2021/12/27 08:34:03;;;;;;;6.57;4.37;;;6.20;99.90;;;;;;5072364;28;20828;-77
2021/12/27 08:36:30;;;;;;;10.80;3.53;;;6.30;99.90;;;;;;5072459;28;20488;-77
2021/12/27 08:38:58;;;;;;;3.93;3.53;;;6.50;99.90;;;;;;5073161;28;20786;-77
2021/12/27 08:41:27;;;;;;;4.33;3.67;;;6.40;99.90;;;;;;5071918;28;20528;-77
2021/12/27 08:43:55;;;;;;;5.13;4.00;;;6.60;99.90;;;;;;5073007;28;20488;-76
2021/12/27 08:46:22;;;;;;;6.10;3.13;;;6.70;99.90;;;;;;5071995;28;20452;-78
2021/12/27 08:48:49;;;;;;;5.50;4.00;;;6.90;99.90;;;;;;5072517;28;21003;-77
2021/12/27 08:51:16;;;;;;;4.23;3.40;;;7.00;99.90;;;;;;5071394;28;20453;-78
2021/12/27 08:53:43;;;;;;;6.33;4.30;;;7.30;99.90;;;;;;5072202;28;20968;-77
2021/12/27 08:56:11;;;;;;;8.20;5.13;;;7.50;99.90;;;;;;5071925;28;20445;-77
2021/12/27 08:58:38;;;;;;;5.33;3.93;;;7.50;99.90;;;;;;5072361;28;20525;-77
2021/12/27 09:01:06;;;;;;;5.80;3.77;;;7.50;99.90;;;;;;5071151;28;20937;-77
2021/12/27 09:03:33;;;;;;;6.93;3.50;;;7.50;99.90;;;;;;5072089;28;20531;-77
2021/12/27 09:06:00;;;;;;;4.40;3.20;;;7.50;99.90;;;;;;5071663;28;20437;-77
2021/12/27 09:08:27;;;;;;;3.97;3.43;;;7.60;99.90;;;;;;5072351;28;20790;-79
2021/12/27 09:10:57;;;;;;;5.50;3.60;;;7.60;99.90;;;;;;5072067;28;20460;-78
2021/12/27 09:13:27;;;;;;;5.97;3.70;;;7.70;99.90;;;;;;5072070;28;20564;-79
2021/12/27 09:15:54;;;;;;;5.30;4.33;;;7.70;99.90;;;;;;5071796;28;20437;-79
2021/12/27 09:18:21;;;;;;;7.90;4.30;;;7.60;99.90;;;;;;5071714;28;20449;-79
2021/12/27 09:20:48;;;;;;;5.20;3.93;;;7.70;99.90;;;;;;5058231;28;20434;-79
2021/12/27 09:23:14;;;;;;;6.50;4.40;;;7.60;99.90;;;;;;5071352;28;20441;-78
2021/12/27 09:25:42;;;;;;;6.27;4.50;;;7.60;99.90;;;;;;5058777;28;20452;-78
2021/12/27 09:28:09;;;;;;;5.07;4.43;;;7.60;99.90;;;;;;5071020;28;20460;-79
2021/12/27 09:30:38;;;;;;;6.87;4.53;;;7.60;99.90;;;;;;5071177;28;20443;-78
2021/12/27 09:33:05;;;;;;;8.20;3.90;;;7.60;99.90;;;;;;5071196;28;20479;-79
2021/12/27 09:35:31;;;;;;;4.83;3.50;;;7.70;99.90;;;;;;5071936;28;20434;-78
2021/12/27 09:37:59;;;;;;;5.37;4.03;;;7.70;99.90;;;;;;5071743;28;20943;-78
2021/12/27 09:40:26;;;;;;;5.73;4.23;;;7.80;99.90;;;;;;5071597;28;20436;-77
2021/12/27 09:42:54;;;;;;;5.53;4.00;;;7.90;99.90;;;;;;5071643;28;20441;-77
2021/12/27 09:45:21;;;;;;;5.00;3.53;;;7.80;99.90;;;;;;5071028;28;20794;-77
2021/12/27 09:47:51;;;;;;;4.70;3.57;;;8.00;99.90;;;;;;5071506;28;20441;-78
2021/12/27 09:50:23;;;;;;;9.97;4.70;;;8.00;99.90;;;;;;5070595;28;20445;-78
2021/12/27 09:52:50;;;;;;;6.50;4.30;;;8.00;99.90;;;;;;5070565;28;20595;-79
2021/12/27 09:55:17;;;;;;;4.30;3.60;;;8.00;99.90;;;;;;5071018;28;20528;-78
2021/12/27 09:57:44;;;;;;;6.00;4.00;;;8.00;99.90;;;;;;5071728;28;20537;-78
2021/12/27 10:00:12;;;;;;;4.47;3.50;;;8.10;99.90;;;;;;5070623;28;20441;-75
2021/12/27 10:02:41;;;;;;;5.43;3.60;;;8.00;99.90;;;;;;5071438;28;20449;-78
2021/12/27 10:05:10;;;;;;;5.57;4.00;;;8.10;99.90;;;;;;5070901;28;20528;-78
2021/12/27 10:07:41;;;;;;;4.77;3.97;;;8.10;99.90;;;;;;5071029;28;21020;-79
2021/12/27 10:10:09;;;;;;;4.40;3.20;;;8.10;99.90;;;;;;5070931;28;20437;-79
2021/12/27 10:12:36;;;;;;;4.37;3.20;;;8.30;99.90;;;;;;5071248;28;20564;-80
2021/12/27 10:15:06;;;;;;;4.40;3.40;;;8.30;99.90;;;;;;5071091;28;20528;-79
2021/12/27 10:17:37;;;;;;;4.10;2.53;;;8.30;99.90;;;;;;5071133;28;20448;-79
2021/12/27 10:20:13;;;;;;;4.43;2.80;;;8.50;99.90;;;;;;5070905;28;20493;-80
2021/12/27 10:22:41;;;;;;;4.30;3.63;;;8.40;99.90;;;;;;5071083;28;20845;-79
2021/12/27 10:25:15;;;;;;;4.47;3.20;;;8.40;99.90;;;;;;5070565;28;20985;-79
2021/12/27 10:27:42;;;;;;;3.60;3.30;;;8.40;99.90;;;;;;5071478;28;20442;-79
2021/12/27 10:30:12;;;;;;;7.40;2.87;;;8.50;99.90;;;;;;5070252;28;20452;-75
2021/12/27 10:32:39;;;;;;;14.53;3.40;;;8.50;99.90;;;;;;5071384;28;20442;-77
2021/12/27 10:35:09;;;;;;;7.20;3.70;;;8.50;99.90;;;;;;5070704;28;20529;-79
2021/12/27 10:37:39;;;;;;;3.33;2.43;;;8.60;99.90;;;;;;5071506;28;20442;-79
2021/12/27 10:40:08;;;;;;;3.20;2.40;;;8.70;99.90;;;;;;5070875;28;20441;-79
2021/12/27 10:42:37;;;;;;;3.87;2.60;;;8.70;99.90;;;;;;5070921;28;20533;-78
2021/12/27 10:45:06;;;;;;;3.83;2.37;;;8.80;99.90;;;;;;5070703;28;20465;-79
2021/12/27 10:47:39;;;;;;;4.37;2.83;;;8.90;99.90;;;;;;5071187;28;20797;-79
2021/12/27 10:50:09;;;;;;;2.50;2.03;;;9.00;99.90;;;;;;5070814;28;20437;-78
2021/12/27 10:52:47;;;;;;;3.70;2.77;;;9.00;99.90;;;;;;5071131;28;20504;-79
2021/12/27 10:55:15;;;;;;;3.83;2.67;;;9.10;99.90;;;;;;5070266;28;20442;-79
2021/12/27 10:57:42;;;;;;;3.10;2.70;;;9.10;64.20;;;;;;5071009;28;20429;-78
2021/12/27 11:00:31;;;;;;;5.50;2.80;;;9.20;14.50;;;;;;5069988;28;20447;-77
2021/12/27 11:03:02;;;;;;;4.67;3.10;;;9.20;1.00;;;;;;5068401;28;20556;-76
2021/12/27 11:05:30;;;;;;;5.40;2.60;;;9.40;1.00;;;;;;5074936;28;20477;-78
2021/12/27 11:08:03;;;;;;;2.90;2.50;;;9.40;1.00;;;;;;5074758;28;20441;-79
2021/12/27 11:10:34;;;;;;;2.67;2.40;;;9.50;1.00;;;;;;5074010;28;20437;-79
2021/12/27 11:13:01;;;;;;;2.70;1.90;;;9.50;1.00;;;;;;5073879;28;20519;-79
2021/12/27 11:15:29;;;;;;;4.67;3.10;;;9.60;1.00;;;;;;5074610;28;20528;-79
2021/12/27 11:17:57;;;;;;;2.80;2.37;;;9.70;1.00;;;;;;5074420;28;20447;-79
2021/12/27 11:20:25;;;;;;;3.53;2.50;;;9.80;99.90;;;;;;5073561;28;20452;-80
2021/12/27 11:22:58;;;;;;;3.20;2.10;;;9.80;99.90;;;;;;5074002;28;20559;-79
2021/12/27 11:25:31;;;;;;;4.10;2.10;;;9.80;99.90;;;;;;5074547;28;20520;-79
2021/12/27 11:27:59;;;;;;;5.07;2.77;;;9.80;99.90;;;;;;5074509;28;20444;-78
2021/12/27 11:30:29;;;;;;;3.13;2.43;;;9.80;99.90;;;;;;5073553;28;20542;-79
2021/12/27 11:33:13;;;;;;;2.50;2.23;;;9.90;99.90;;;;;;5073971;28;20441;-79
2021/12/27 11:36:03;;;;;;;2.77;2.10;;;9.90;99.90;;;;;;5074253;28;20445;-79
2021/12/27 11:38:32;;;;;;;3.10;1.90;;;10.00;1.00;;;;;;5074071;28;20453;-77
2021/12/27 11:41:02;;;;;;;2.90;2.27;;;10.00;1.00;;;;;;5073586;28;20520;-71
2021/12/27 11:43:47;;;;;;;3.30;2.30;;;10.00;1.00;;;;;;5073786;28;20946;-76
2021/12/27 11:46:14;;;;;;;2.40;2.20;;;10.10;1.00;;;;;;5073017;28;20967;-80
2021/12/27 11:48:46;;;;;;;2.97;2.23;;;10.20;1.00;;;;;;5074022;28;20815;-79
2021/12/27 11:51:13;;;;;;;3.30;2.43;;;10.20;1.00;;;;;;5072352;28;20929;-79
2021/12/27 11:53:52;;;;;;;3.57;2.70;;;10.20;1.00;;;;;;5073722;28;20505;-79
2021/12/27 11:56:48;;;;;;;3.20;2.33;;;10.30;1.00;;;;;;5073223;28;20449;-79
2021/12/27 11:59:35;;;;;;;3.27;2.23;;;10.40;1.00;;;;;;5073243;28;21037;-80
2021/12/27 12:02:26;;;;;;;3.53;2.43;;;10.40;1.00;;;;;;5072862;28;20448;-79
2021/12/27 12:04:56;;;;;;;5.93;2.30;;;10.40;99.90;;;;;;5074239;28;20445;-80
2021/12/27 12:07:48;;;;;;;2.97;2.20;;;10.30;57.20;;;;;;5072976;28;20533;-80
2021/12/27 12:10:16;;;;;;;2.70;2.07;;;10.40;99.90;;;;;;5072547;28;20450;-80
2021/12/27 12:13:04;;;;;;;2.23;2.07;;;10.30;1.00;;;;;;5073491;28;20802;-80
2021/12/27 12:15:31;;;;;;;5.93;2.47;;;10.50;1.00;;;;;;5072286;28;20449;-79
2021/12/27 12:17:58;;;;;;;4.03;2.20;;;10.50;99.90;;;;;;5073589;28;20452;-79
2021/12/27 12:20:35;;;;;;;3.03;2.30;;;10.50;1.00;;;;;;5075495;28;20532;-80
2021/12/27 12:23:07;;;;;;;3.93;2.70;;;10.50;1.00;;;;;;5087272;28;20501;-78
2021/12/27 12:25:35;;;;;;;2.83;2.37;;;10.60;99.90;;;;;;5097022;28;20454;-75
2021/12/27 12:28:05;;;;;;;4.83;2.90;;;10.50;99.90;;;;;;5091537;28;20501;-79
2021/12/27 12:30:35;;;;;;;2.57;2.37;;;10.50;99.90;;;;;;5079991;28;21000;-79
2021/12/27 12:33:04;;;;;;;3.80;3.27;;;10.40;1.00;;;;;;5076865;28;20479;-80
2021/12/27 12:35:33;;;;;;;2.97;2.47;;;10.50;1.00;;;;;;5074262;28;20485;-80
2021/12/27 12:38:10;;;;;;;5.53;2.83;;;10.60;1.00;;;;;;5072499;28;20533;-78
2021/12/27 12:40:37;;;;;;;3.27;3.00;;;10.50;1.00;;;;;;5072748;28;20444;-79
2021/12/27 12:43:06;;;;;;;5.33;3.13;;;10.50;1.00;;;;;;5072114;28;20446;-79
2021/12/27 12:45:34;;;;;;;3.60;2.90;;;10.60;1.00;;;;;;5072808;28;20926;-79
2021/12/27 12:48:01;;;;;;;4.83;2.77;;;10.60;99.90;;;;;;5072295;28;20446;-79
2021/12/27 12:50:28;;;;;;;3.33;2.43;;;10.60;99.90;;;;;;5072282;28;20441;-80
2021/12/27 12:52:58;;;;;;;4.20;3.00;;;10.60;99.90;;;;;;5072091;28;20499;-79
2021/12/27 12:55:26;;;;;;;2.73;2.53;;;10.60;1.00;;;;;;5073425;28;20554;-79
2021/12/27 12:57:53;;;;;;;3.00;2.70;;;10.60;1.00;;;;;;5072416;28;20437;-80
2021/12/27 13:00:24;;;;;;;3.37;2.40;;;10.70;1.00;;;;;;5071813;28;20447;-81
2021/12/27 13:02:51;;;;;;;3.77;2.03;;;10.80;99.90;;;;;;5072576;28;20441;-79